sensor_id;sensor_type;location;lat;lon;timestamp;P1;durP1;ratioP1;P2;durP2;ratioP2
54406;SDS011;40313;50.308;30.374;2022-10-31T00:00:54;7.28;;;1.38;;
54406;SDS011;40313;50.308;30.374;2022-10-31T00:03:21;2.97;;;0.98;;
54406;SDS011;40313;50.308;30.374;2022-10-31T00:05:48;4.78;;;1.70;;
54406;SDS011;40313;50.308;30.374;2022-10-31T00:08:16;8.82;;;1.90;;
54406;SDS011;40313;50.308;30.374;2022-10-31T00:10:43;7.15;;;1.55;;
54406;SDS011;40313;50.308;30.374;2022-10-31T00:13:11;9.18;;;1.70;;
54406;SDS011;40313;50.308;30.374;2022-10-31T00:15:39;6.57;;;1.42;;
54406;SDS011;40313;50.308;30.374;2022-10-31T00:18:06;7.15;;;1.42;;
54406;SDS011;40313;50.308;30.374;2022-10-31T00:20:34;16.90;;;2.50;;
54406;SDS011;40313;50.308;30.374;2022-10-31T00:23:01;3.60;;;1.67;;
54406;SDS011;40313;50.308;30.374;2022-10-31T00:25:32;5.20;;;1.63;;
54406;SDS011;40313;50.308;30.374;2022-10-31T00:27:59;7.38;;;1.77;;
54406;SDS011;40313;50.308;30.374;2022-10-31T00:30:26;4.35;;;2.25;;
54406;SDS011;40313;50.308;30.374;2022-10-31T00:32:53;5.47;;;1.27;;
54406;SDS011;40313;50.308;30.374;2022-10-31T00:35:19;9.13;;;2.38;;
54406;SDS011;40313;50.308;30.374;2022-10-31T00:37:46;13.80;;;2.00;;
54406;SDS011;40313;50.308;30.374;2022-10-31T00:40:12;7.18;;;1.52;;
54406;SDS011;40313;50.308;30.374;2022-10-31T00:42:40;14.15;;;2.30;;
54406;SDS011;40313;50.308;30.374;2022-10-31T00:45:07;10.80;;;2.50;;
54406;SDS011;40313;50.308;30.374;2022-10-31T00:47:35;8.55;;;1.38;;
54406;SDS011;40313;50.308;30.374;2022-10-31T00:50:01;7.32;;;2.13;;
54406;SDS011;40313;50.308;30.374;2022-10-31T00:52:28;22.25;;;2.20;;
54406;SDS011;40313;50.308;30.374;2022-10-31T00:54:55;14.23;;;1.90;;
54406;SDS011;40313;50.308;30.374;2022-10-31T00:57:21;8.07;;;2.03;;
54406;SDS011;40313;50.308;30.374;2022-10-31T00:59:49;8.43;;;1.67;;
54406;SDS011;40313;50.308;30.374;2022-10-31T01:02:16;7.88;;;1.75;;
54406;SDS011;40313;50.308;30.374;2022-10-31T01:04:42;7.53;;;2.03;;
54406;SDS011;40313;50.308;30.374;2022-10-31T01:07:09;4.97;;;1.00;;
54406;SDS011;40313;50.308;30.374;2022-10-31T01:09:37;5.13;;;3.17;;
54406;SDS011;40313;50.308;30.374;2022-10-31T01:12:03;5.80;;;1.73;;
54406;SDS011;40313;50.308;30.374;2022-10-31T01:14:30;8.88;;;1.63;;
54406;SDS011;40313;50.308;30.374;2022-10-31T01:16:58;4.63;;;1.35;;
54406;SDS011;40313;50.308;30.374;2022-10-31T01:19:24;9.00;;;2.03;;
54406;SDS011;40313;50.308;30.374;2022-10-31T01:21:53;4.18;;;1.50;;
54406;SDS011;40313;50.308;30.374;2022-10-31T01:24:20;5.25;;;1.27;;
54406;SDS011;40313;50.308;30.374;2022-10-31T01:26:46;4.10;;;1.45;;
54406;SDS011;40313;50.308;30.374;2022-10-31T01:29:13;7.15;;;2.22;;
54406;SDS011;40313;50.308;30.374;2022-10-31T01:31:39;2.75;;;1.52;;
54406;SDS011;40313;50.308;30.374;2022-10-31T01:34:07;5.32;;;1.85;;
54406;SDS011;40313;50.308;30.374;2022-10-31T01:36:38;15.98;;;2.63;;
54406;SDS011;40313;50.308;30.374;2022-10-31T01:39:08;12.65;;;1.75;;
54406;SDS011;40313;50.308;30.374;2022-10-31T01:41:37;7.63;;;2.25;;
54406;SDS011;40313;50.308;30.374;2022-10-31T01:47:05;7.80;;;1.55;;
54406;SDS011;40313;50.308;30.374;2022-10-31T01:49:35;8.68;;;1.75;;
54406;SDS011;40313;50.308;30.374;2022-10-31T01:52:07;9.20;;;2.10;;
54406;SDS011;40313;50.308;30.374;2022-10-31T01:54:39;6.28;;;1.50;;
54406;SDS011;40313;50.308;30.374;2022-10-31T01:57:10;10.07;;;1.92;;
54406;SDS011;40313;50.308;30.374;2022-10-31T01:59:39;10.90;;;1.60;;
54406;SDS011;40313;50.308;30.374;2022-10-31T02:02:10;8.43;;;2.00;;
54406;SDS011;40313;50.308;30.374;2022-10-31T02:04:39;4.18;;;1.67;;
54406;SDS011;40313;50.308;30.374;2022-10-31T02:07:07;5.97;;;1.40;;
54406;SDS011;40313;50.308;30.374;2022-10-31T02:09:38;5.40;;;1.48;;
54406;SDS011;40313;50.308;30.374;2022-10-31T02:12:06;4.20;;;2.00;;
54406;SDS011;40313;50.308;30.374;2022-10-31T02:14:36;8.63;;;1.70;;
54406;SDS011;40313;50.308;30.374;2022-10-31T02:17:04;8.88;;;2.50;;
54406;SDS011;40313;50.308;30.374;2022-10-31T02:19:33;10.57;;;1.95;;
54406;SDS011;40313;50.308;30.374;2022-10-31T02:22:09;6.13;;;1.90;;
54406;SDS011;40313;50.308;30.374;2022-10-31T02:24:44;11.95;;;1.90;;
54406;SDS011;40313;50.308;30.374;2022-10-31T02:27:26;9.05;;;2.00;;
54406;SDS011;40313;50.308;30.374;2022-10-31T02:30:09;2.83;;;1.52;;
54406;SDS011;40313;50.308;30.374;2022-10-31T02:32:45;8.82;;;2.17;;
54406;SDS011;40313;50.308;30.374;2022-10-31T02:35:19;16.23;;;3.50;;
54406;SDS011;40313;50.308;30.374;2022-10-31T02:38:02;5.47;;;1.83;;
54406;SDS011;40313;50.308;30.374;2022-10-31T02:40:35;4.65;;;2.10;;
54406;SDS011;40313;50.308;30.374;2022-10-31T02:43:06;11.23;;;2.35;;
54406;SDS011;40313;50.308;30.374;2022-10-31T02:45:41;5.05;;;2.28;;
54406;SDS011;40313;50.308;30.374;2022-10-31T02:48:17;11.05;;;2.42;;
54406;SDS011;40313;50.308;30.374;2022-10-31T02:50:48;8.98;;;1.75;;
54406;SDS011;40313;50.308;30.374;2022-10-31T02:53:18;20.98;;;3.08;;
54406;SDS011;40313;50.308;30.374;2022-10-31T02:55:54;7.72;;;2.22;;
54406;SDS011;40313;50.308;30.374;2022-10-31T02:58:25;11.77;;;2.35;;
54406;SDS011;40313;50.308;30.374;2022-10-31T03:01:06;5.25;;;1.83;;
54406;SDS011;40313;50.308;30.374;2022-10-31T03:03:55;8.98;;;2.00;;
54406;SDS011;40313;50.308;30.374;2022-10-31T03:06:33;13.75;;;2.30;;
54406;SDS011;40313;50.308;30.374;2022-10-31T03:09:07;3.33;;;1.83;;
54406;SDS011;40313;50.308;30.374;2022-10-31T03:11:41;9.75;;;2.08;;
54406;SDS011;40313;50.308;30.374;2022-10-31T03:14:14;7.53;;;2.22;;
54406;SDS011;40313;50.308;30.374;2022-10-31T03:16:47;11.35;;;2.30;;
54406;SDS011;40313;50.308;30.374;2022-10-31T03:19:18;7.53;;;2.10;;
54406;SDS011;40313;50.308;30.374;2022-10-31T03:21:50;9.15;;;1.40;;
54406;SDS011;40313;50.308;30.374;2022-10-31T03:24:22;7.90;;;1.95;;
54406;SDS011;40313;50.308;30.374;2022-10-31T03:26:54;12.15;;;2.25;;
54406;SDS011;40313;50.308;30.374;2022-10-31T03:29:25;8.15;;;3.20;;
54406;SDS011;40313;50.308;30.374;2022-10-31T03:31:55;9.68;;;2.15;;
54406;SDS011;40313;50.308;30.374;2022-10-31T03:34:25;7.47;;;1.70;;
54406;SDS011;40313;50.308;30.374;2022-10-31T03:36:55;17.52;;;4.32;;
54406;SDS011;40313;50.308;30.374;2022-10-31T03:39:25;3.03;;;1.65;;
54406;SDS011;40313;50.308;30.374;2022-10-31T03:41:53;6.63;;;1.80;;
54406;SDS011;40313;50.308;30.374;2022-10-31T03:44:23;3.85;;;1.60;;
54406;SDS011;40313;50.308;30.374;2022-10-31T03:46:52;4.57;;;1.33;;
54406;SDS011;40313;50.308;30.374;2022-10-31T03:49:19;6.03;;;1.35;;
54406;SDS011;40313;50.308;30.374;2022-10-31T03:51:48;4.45;;;1.90;;
54406;SDS011;40313;50.308;30.374;2022-10-31T03:54:22;9.70;;;1.45;;
54406;SDS011;40313;50.308;30.374;2022-10-31T03:56:53;2.83;;;1.60;;
54406;SDS011;40313;50.308;30.374;2022-10-31T03:59:24;3.30;;;1.45;;
54406;SDS011;40313;50.308;30.374;2022-10-31T04:01:56;2.80;;;1.40;;
54406;SDS011;40313;50.308;30.374;2022-10-31T04:04:26;2.90;;;1.38;;
54406;SDS011;40313;50.308;30.374;2022-10-31T04:06:56;10.43;;;1.50;;
54406;SDS011;40313;50.308;30.374;2022-10-31T04:09:26;13.35;;;2.00;;
54406;SDS011;40313;50.308;30.374;2022-10-31T04:11:57;6.53;;;1.60;;
54406;SDS011;40313;50.308;30.374;2022-10-31T04:14:26;2.30;;;1.30;;
54406;SDS011;40313;50.308;30.374;2022-10-31T04:16:55;5.55;;;1.30;;
54406;SDS011;40313;50.308;30.374;2022-10-31T04:19:22;5.82;;;1.10;;
54406;SDS011;40313;50.308;30.374;2022-10-31T04:21:49;3.72;;;0.88;;
54406;SDS011;40313;50.308;30.374;2022-10-31T04:24:16;6.57;;;0.70;;
54406;SDS011;40313;50.308;30.374;2022-10-31T04:26:43;5.03;;;1.05;;
54406;SDS011;40313;50.308;30.374;2022-10-31T04:29:09;1.40;;;0.60;;
54406;SDS011;40313;50.308;30.374;2022-10-31T04:31:36;2.75;;;0.75;;
54406;SDS011;40313;50.308;30.374;2022-10-31T04:34:03;3.35;;;0.70;;
54406;SDS011;40313;50.308;30.374;2022-10-31T04:36:29;4.88;;;0.68;;
54406;SDS011;40313;50.308;30.374;2022-10-31T04:38:56;0.77;;;0.68;;
54406;SDS011;40313;50.308;30.374;2022-10-31T04:41:23;1.38;;;0.85;;
54406;SDS011;40313;50.308;30.374;2022-10-31T04:43:50;6.10;;;0.55;;
54406;SDS011;40313;50.308;30.374;2022-10-31T04:46:17;2.45;;;0.95;;
54406;SDS011;40313;50.308;30.374;2022-10-31T04:48:44;2.30;;;0.73;;
54406;SDS011;40313;50.308;30.374;2022-10-31T04:51:11;1.08;;;0.40;;
54406;SDS011;40313;50.308;30.374;2022-10-31T04:53:38;8.93;;;0.75;;
54406;SDS011;40313;50.308;30.374;2022-10-31T04:56:04;7.00;;;0.55;;
54406;SDS011;40313;50.308;30.374;2022-10-31T04:58:33;2.47;;;0.90;;
54406;SDS011;40313;50.308;30.374;2022-10-31T05:00:59;2.22;;;0.68;;
54406;SDS011;40313;50.308;30.374;2022-10-31T05:03:26;6.68;;;0.70;;
54406;SDS011;40313;50.308;30.374;2022-10-31T05:05:52;5.97;;;0.40;;
54406;SDS011;40313;50.308;30.374;2022-10-31T05:08:19;0.93;;;0.55;;
54406;SDS011;40313;50.308;30.374;2022-10-31T05:10:45;1.70;;;0.57;;
54406;SDS011;40313;50.308;30.374;2022-10-31T05:13:12;1.15;;;0.70;;
54406;SDS011;40313;50.308;30.374;2022-10-31T05:15:41;4.80;;;1.10;;
54406;SDS011;40313;50.308;30.374;2022-10-31T05:18:07;3.75;;;0.70;;
54406;SDS011;40313;50.308;30.374;2022-10-31T05:20:34;2.70;;;0.40;;
54406;SDS011;40313;50.308;30.374;2022-10-31T05:23:00;1.25;;;0.50;;
54406;SDS011;40313;50.308;30.374;2022-10-31T05:25:27;2.20;;;0.60;;
54406;SDS011;40313;50.308;30.374;2022-10-31T05:27:55;1.40;;;0.77;;
54406;SDS011;40313;50.308;30.374;2022-10-31T05:30:23;0.77;;;0.45;;
54406;SDS011;40313;50.308;30.374;2022-10-31T05:32:52;12.32;;;0.70;;
54406;SDS011;40313;50.308;30.374;2022-10-31T05:35:19;4.93;;;0.75;;
54406;SDS011;40313;50.308;30.374;2022-10-31T05:37:47;1.40;;;0.70;;
54406;SDS011;40313;50.308;30.374;2022-10-31T05:40:14;6.50;;;1.33;;
54406;SDS011;40313;50.308;30.374;2022-10-31T05:42:43;13.98;;;1.02;;
54406;SDS011;40313;50.308;30.374;2022-10-31T05:45:11;2.42;;;0.95;;
54406;SDS011;40313;50.308;30.374;2022-10-31T05:47:39;5.30;;;0.75;;
54406;SDS011;40313;50.308;30.374;2022-10-31T05:50:07;3.25;;;0.82;;
54406;SDS011;40313;50.308;30.374;2022-10-31T05:52:35;3.75;;;3.17;;
54406;SDS011;40313;50.308;30.374;2022-10-31T05:55:01;2.45;;;2.00;;
54406;SDS011;40313;50.308;30.374;2022-10-31T05:57:28;8.43;;;4.32;;
54406;SDS011;40313;50.308;30.374;2022-10-31T05:59:55;2.90;;;1.77;;
54406;SDS011;40313;50.308;30.374;2022-10-31T06:02:21;6.07;;;1.50;;
54406;SDS011;40313;50.308;30.374;2022-10-31T06:04:48;1.20;;;0.70;;
54406;SDS011;40313;50.308;30.374;2022-10-31T06:07:16;2.45;;;0.77;;
54406;SDS011;40313;50.308;30.374;2022-10-31T06:09:42;4.72;;;0.75;;
54406;SDS011;40313;50.308;30.374;2022-10-31T06:12:09;1.25;;;0.57;;
54406;SDS011;40313;50.308;30.374;2022-10-31T06:14:35;1.25;;;0.45;;
54406;SDS011;40313;50.308;30.374;2022-10-31T06:17:02;1.95;;;0.50;;
54406;SDS011;40313;50.308;30.374;2022-10-31T06:19:28;1.48;;;0.45;;
54406;SDS011;40313;50.308;30.374;2022-10-31T06:21:55;1.23;;;0.50;;
54406;SDS011;40313;50.308;30.374;2022-10-31T06:24:23;4.20;;;0.70;;
54406;SDS011;40313;50.308;30.374;2022-10-31T06:26:49;5.35;;;0.73;;
54406;SDS011;40313;50.308;30.374;2022-10-31T06:29:16;1.85;;;0.40;;
54406;SDS011;40313;50.308;30.374;2022-10-31T06:31:42;4.22;;;0.73;;
54406;SDS011;40313;50.308;30.374;2022-10-31T06:34:09;8.23;;;0.82;;
54406;SDS011;40313;50.308;30.374;2022-10-31T06:36:35;1.70;;;0.85;;
54406;SDS011;40313;50.308;30.374;2022-10-31T06:39:02;6.03;;;0.80;;
54406;SDS011;40313;50.308;30.374;2022-10-31T06:41:29;2.65;;;1.30;;
54406;SDS011;40313;50.308;30.374;2022-10-31T06:43:56;2.95;;;1.15;;
54406;SDS011;40313;50.308;30.374;2022-10-31T06:46:22;1.35;;;0.82;;
54406;SDS011;40313;50.308;30.374;2022-10-31T06:48:49;6.43;;;0.88;;
54406;SDS011;40313;50.308;30.374;2022-10-31T06:51:15;5.93;;;1.05;;
54406;SDS011;40313;50.308;30.374;2022-10-31T06:53:42;2.53;;;0.70;;
54406;SDS011;40313;50.308;30.374;2022-10-31T06:56:08;1.17;;;0.70;;
54406;SDS011;40313;50.308;30.374;2022-10-31T06:58:36;3.33;;;1.08;;
54406;SDS011;40313;50.308;30.374;2022-10-31T07:01:03;2.75;;;1.00;;
54406;SDS011;40313;50.308;30.374;2022-10-31T07:03:29;2.42;;;1.00;;
54406;SDS011;40313;50.308;30.374;2022-10-31T07:05:56;5.60;;;0.80;;
54406;SDS011;40313;50.308;30.374;2022-10-31T07:08:26;6.85;;;1.00;;
54406;SDS011;40313;50.308;30.374;2022-10-31T07:10:53;5.15;;;0.88;;
54406;SDS011;40313;50.308;30.374;2022-10-31T07:13:20;1.90;;;0.40;;
54406;SDS011;40313;50.308;30.374;2022-10-31T07:15:52;1.42;;;0.75;;
54406;SDS011;40313;50.308;30.374;2022-10-31T07:18:19;3.53;;;0.80;;
54406;SDS011;40313;50.308;30.374;2022-10-31T07:20:46;1.20;;;0.57;;
54406;SDS011;40313;50.308;30.374;2022-10-31T07:23:14;1.02;;;0.65;;
54406;SDS011;40313;50.308;30.374;2022-10-31T07:25:40;6.75;;;1.15;;
54406;SDS011;40313;50.308;30.374;2022-10-31T07:28:07;2.85;;;0.85;;
54406;SDS011;40313;50.308;30.374;2022-10-31T07:30:34;7.80;;;0.57;;
54406;SDS011;40313;50.308;30.374;2022-10-31T07:33:02;1.20;;;0.65;;
54406;SDS011;40313;50.308;30.374;2022-10-31T07:35:29;2.42;;;1.45;;
54406;SDS011;40313;50.308;30.374;2022-10-31T07:37:56;4.32;;;0.80;;
54406;SDS011;40313;50.308;30.374;2022-10-31T07:40:23;6.50;;;1.02;;
54406;SDS011;40313;50.308;30.374;2022-10-31T07:42:50;0.95;;;0.75;;
54406;SDS011;40313;50.308;30.374;2022-10-31T07:45:19;3.40;;;0.80;;
54406;SDS011;40313;50.308;30.374;2022-10-31T07:47:47;5.18;;;0.80;;
54406;SDS011;40313;50.308;30.374;2022-10-31T07:50:17;1.30;;;0.57;;
54406;SDS011;40313;50.308;30.374;2022-10-31T07:52:45;1.10;;;0.75;;
54406;SDS011;40313;50.308;30.374;2022-10-31T07:55:12;1.38;;;0.80;;
54406;SDS011;40313;50.308;30.374;2022-10-31T07:57:39;3.20;;;0.80;;
54406;SDS011;40313;50.308;30.374;2022-10-31T08:00:06;0.95;;;0.50;;
54406;SDS011;40313;50.308;30.374;2022-10-31T08:02:34;1.20;;;0.65;;
54406;SDS011;40313;50.308;30.374;2022-10-31T08:05:01;1.50;;;1.00;;
54406;SDS011;40313;50.308;30.374;2022-10-31T08:07:29;1.52;;;0.60;;
54406;SDS011;40313;50.308;30.374;2022-10-31T08:10:01;1.23;;;0.80;;
54406;SDS011;40313;50.308;30.374;2022-10-31T08:12:28;1.25;;;0.55;;
54406;SDS011;40313;50.308;30.374;2022-10-31T08:14:54;1.75;;;0.68;;
54406;SDS011;40313;50.308;30.374;2022-10-31T08:17:21;1.42;;;0.80;;
54406;SDS011;40313;50.308;30.374;2022-10-31T08:19:47;1.60;;;0.50;;
54406;SDS011;40313;50.308;30.374;2022-10-31T08:22:14;5.97;;;0.50;;
54406;SDS011;40313;50.308;30.374;2022-10-31T08:24:41;1.95;;;1.75;;
54406;SDS011;40313;50.308;30.374;2022-10-31T08:27:08;5.35;;;4.05;;
54406;SDS011;40313;50.308;30.374;2022-10-31T08:29:34;5.57;;;1.98;;
54406;SDS011;40313;50.308;30.374;2022-10-31T08:32:01;1.95;;;1.38;;
54406;SDS011;40313;50.308;30.374;2022-10-31T08:34:27;2.67;;;1.20;;
54406;SDS011;40313;50.308;30.374;2022-10-31T08:36:54;0.85;;;0.50;;
54406;SDS011;40313;50.308;30.374;2022-10-31T08:39:20;0.50;;;0.40;;
54406;SDS011;40313;50.308;30.374;2022-10-31T08:41:48;1.33;;;0.50;;
54406;SDS011;40313;50.308;30.374;2022-10-31T08:44:16;7.63;;;0.50;;
54406;SDS011;40313;50.308;30.374;2022-10-31T08:46:42;2.22;;;0.47;;
54406;SDS011;40313;50.308;30.374;2022-10-31T08:49:09;2.05;;;0.70;;
54406;SDS011;40313;50.308;30.374;2022-10-31T08:51:35;0.63;;;0.52;;
54406;SDS011;40313;50.308;30.374;2022-10-31T08:54:02;4.32;;;1.60;;
54406;SDS011;40313;50.308;30.374;2022-10-31T08:56:28;1.98;;;0.93;;
54406;SDS011;40313;50.308;30.374;2022-10-31T08:58:56;2.55;;;0.68;;
54406;SDS011;40313;50.308;30.374;2022-10-31T09:01:23;0.90;;;0.60;;
54406;SDS011;40313;50.308;30.374;2022-10-31T09:03:49;2.22;;;0.50;;
54406;SDS011;40313;50.308;30.374;2022-10-31T09:06:16;0.70;;;0.60;;
54406;SDS011;40313;50.308;30.374;2022-10-31T09:08:42;3.15;;;1.20;;
54406;SDS011;40313;50.308;30.374;2022-10-31T09:11:09;0.70;;;0.50;;
54406;SDS011;40313;50.308;30.374;2022-10-31T09:13:35;4.13;;;1.55;;
54406;SDS011;40313;50.308;30.374;2022-10-31T09:16:03;1.63;;;1.08;;
54406;SDS011;40313;50.308;30.374;2022-10-31T09:18:31;1.95;;;0.70;;
54406;SDS011;40313;50.308;30.374;2022-10-31T09:20:58;0.88;;;0.73;;
54406;SDS011;40313;50.308;30.374;2022-10-31T09:23:25;1.85;;;1.75;;
54406;SDS011;40313;50.308;30.374;2022-10-31T09:25:53;4.45;;;0.93;;
54406;SDS011;40313;50.308;30.374;2022-10-31T09:28:20;4.72;;;0.77;;
54406;SDS011;40313;50.308;30.374;2022-10-31T09:30:49;1.52;;;0.82;;
54406;SDS011;40313;50.308;30.374;2022-10-31T09:33:17;2.25;;;1.50;;
54406;SDS011;40313;50.308;30.374;2022-10-31T09:35:45;1.83;;;1.30;;
54406;SDS011;40313;50.308;30.374;2022-10-31T09:38:12;4.47;;;0.60;;
54406;SDS011;40313;50.308;30.374;2022-10-31T09:40:41;4.78;;;2.10;;
54406;SDS011;40313;50.308;30.374;2022-10-31T09:43:13;1.17;;;0.50;;
54406;SDS011;40313;50.308;30.374;2022-10-31T09:45:45;0.80;;;0.40;;
54406;SDS011;40313;50.308;30.374;2022-10-31T09:48:27;1.70;;;1.38;;
54406;SDS011;40313;50.308;30.374;2022-10-31T09:51:03;3.63;;;3.33;;
54406;SDS011;40313;50.308;30.374;2022-10-31T09:53:33;1.65;;;1.17;;
54406;SDS011;40313;50.308;30.374;2022-10-31T09:56:04;6.05;;;3.92;;
54406;SDS011;40313;50.308;30.374;2022-10-31T09:58:34;3.60;;;1.48;;
54406;SDS011;40313;50.308;30.374;2022-10-31T10:01:10;2.55;;;1.00;;
54406;SDS011;40313;50.308;30.374;2022-10-31T10:03:50;2.33;;;1.55;;
54406;SDS011;40313;50.308;30.374;2022-10-31T10:06:21;2.47;;;2.28;;
54406;SDS011;40313;50.308;30.374;2022-10-31T10:08:53;7.07;;;1.95;;
54406;SDS011;40313;50.308;30.374;2022-10-31T10:11:25;0.65;;;0.50;;
54406;SDS011;40313;50.308;30.374;2022-10-31T10:14:10;2.03;;;1.80;;
54406;SDS011;40313;50.308;30.374;2022-10-31T10:16:51;8.18;;;0.60;;
54406;SDS011;40313;50.308;30.374;2022-10-31T10:19:33;0.63;;;0.43;;
54406;SDS011;40313;50.308;30.374;2022-10-31T10:22:12;4.65;;;0.38;;
54406;SDS011;40313;50.308;30.374;2022-10-31T10:24:53;0.77;;;0.30;;
54406;SDS011;40313;50.308;30.374;2022-10-31T10:27:40;1.77;;;0.60;;
54406;SDS011;40313;50.308;30.374;2022-10-31T10:30:15;2.08;;;0.60;;
54406;SDS011;40313;50.308;30.374;2022-10-31T10:32:45;0.60;;;0.45;;
54406;SDS011;40313;50.308;30.374;2022-10-31T10:35:19;2.70;;;0.57;;
54406;SDS011;40313;50.308;30.374;2022-10-31T10:37:49;7.38;;;3.65;;
54406;SDS011;40313;50.308;30.374;2022-10-31T10:40:21;1.10;;;0.90;;
54406;SDS011;40313;50.308;30.374;2022-10-31T10:43:07;2.63;;;2.03;;
54406;SDS011;40313;50.308;30.374;2022-10-31T10:45:52;6.78;;;1.27;;
54406;SDS011;40313;50.308;30.374;2022-10-31T10:48:49;14.55;;;0.82;;
54406;SDS011;40313;50.308;30.374;2022-10-31T10:51:22;8.05;;;1.17;;
54406;SDS011;40313;50.308;30.374;2022-10-31T10:54:02;3.35;;;2.38;;
54406;SDS011;40313;50.308;30.374;2022-10-31T10:56:49;1.25;;;1.10;;
54406;SDS011;40313;50.308;30.374;2022-10-31T10:59:26;3.78;;;0.47;;
54406;SDS011;40313;50.308;30.374;2022-10-31T11:01:54;4.90;;;1.75;;
54406;SDS011;40313;50.308;30.374;2022-10-31T11:04:24;6.38;;;2.10;;
54406;SDS011;40313;50.308;30.374;2022-10-31T11:06:59;6.25;;;2.67;;
54406;SDS011;40313;50.308;30.374;2022-10-31T11:09:26;12.57;;;5.55;;
54406;SDS011;40313;50.308;30.374;2022-10-31T11:11:53;0.63;;;0.43;;
54406;SDS011;40313;50.308;30.374;2022-10-31T11:14:21;2.05;;;1.13;;
54406;SDS011;40313;50.308;30.374;2022-10-31T11:16:49;0.98;;;0.40;;
54406;SDS011;40313;50.308;30.374;2022-10-31T11:19:20;1.88;;;1.77;;
54406;SDS011;40313;50.308;30.374;2022-10-31T11:21:48;1.85;;;0.30;;
54406;SDS011;40313;50.308;30.374;2022-10-31T11:24:18;1.02;;;0.40;;
54406;SDS011;40313;50.308;30.374;2022-10-31T11:26:46;0.43;;;0.30;;
54406;SDS011;40313;50.308;30.374;2022-10-31T11:29:15;2.30;;;0.68;;
54406;SDS011;40313;50.308;30.374;2022-10-31T11:31:44;9.98;;;0.47;;
54406;SDS011;40313;50.308;30.374;2022-10-31T11:34:14;3.63;;;0.90;;
54406;SDS011;40313;50.308;30.374;2022-10-31T11:36:46;6.85;;;0.60;;
54406;SDS011;40313;50.308;30.374;2022-10-31T11:39:15;1.38;;;0.60;;
54406;SDS011;40313;50.308;30.374;2022-10-31T11:41:46;1.33;;;0.50;;
54406;SDS011;40313;50.308;30.374;2022-10-31T11:44:16;0.77;;;0.50;;
54406;SDS011;40313;50.308;30.374;2022-10-31T11:46:46;0.85;;;0.65;;
54406;SDS011;40313;50.308;30.374;2022-10-31T11:49:15;1.15;;;0.75;;
54406;SDS011;40313;50.308;30.374;2022-10-31T11:51:47;2.47;;;0.50;;
54406;SDS011;40313;50.308;30.374;2022-10-31T11:54:22;0.75;;;0.45;;
54406;SDS011;40313;50.308;30.374;2022-10-31T11:56:51;7.57;;;1.10;;
54406;SDS011;40313;50.308;30.374;2022-10-31T11:59:21;3.38;;;0.80;;
54406;SDS011;40313;50.308;30.374;2022-10-31T12:01:51;0.60;;;0.40;;
54406;SDS011;40313;50.308;30.374;2022-10-31T12:04:18;7.63;;;1.50;;
54406;SDS011;40313;50.308;30.374;2022-10-31T12:06:56;1.50;;;0.68;;
54406;SDS011;40313;50.308;30.374;2022-10-31T12:09:25;9.82;;;7.22;;
54406;SDS011;40313;50.308;30.374;2022-10-31T12:14:56;1.23;;;0.98;;
54406;SDS011;40313;50.308;30.374;2022-10-31T12:17:35;1.33;;;0.75;;
54406;SDS011;40313;50.308;30.374;2022-10-31T12:20:06;3.35;;;2.92;;
54406;SDS011;40313;50.308;30.374;2022-10-31T12:22:44;7.18;;;1.33;;
54406;SDS011;40313;50.308;30.374;2022-10-31T12:25:21;3.15;;;1.55;;
54406;SDS011;40313;50.308;30.374;2022-10-31T12:28:04;1.23;;;0.75;;
54406;SDS011;40313;50.308;30.374;2022-10-31T12:30:48;0.68;;;0.68;;
54406;SDS011;40313;50.308;30.374;2022-10-31T12:33:29;0.95;;;0.40;;
54406;SDS011;40313;50.308;30.374;2022-10-31T12:36:10;1.85;;;0.60;;
54406;SDS011;40313;50.308;30.374;2022-10-31T12:38:55;2.33;;;0.70;;
54406;SDS011;40313;50.308;30.374;2022-10-31T12:41:40;2.83;;;0.40;;
54406;SDS011;40313;50.308;30.374;2022-10-31T12:44:16;6.07;;;0.82;;
54406;SDS011;40313;50.308;30.374;2022-10-31T12:50:02;4.57;;;0.77;;
54406;SDS011;40313;50.308;30.374;2022-10-31T12:52:47;0.93;;;0.82;;
54406;SDS011;40313;50.308;30.374;2022-10-31T12:55:29;5.38;;;4.18;;
54406;SDS011;40313;50.308;30.374;2022-10-31T12:58:09;1.90;;;1.42;;
54406;SDS011;40313;50.308;30.374;2022-10-31T13:00:42;2.22;;;2.03;;
54406;SDS011;40313;50.308;30.374;2022-10-31T13:03:18;2.42;;;1.13;;
54406;SDS011;40313;50.308;30.374;2022-10-31T13:05:51;4.35;;;2.30;;
54406;SDS011;40313;50.308;30.374;2022-10-31T13:08:24;2.65;;;2.45;;
54406;SDS011;40313;50.308;30.374;2022-10-31T13:10:56;12.10;;;1.00;;
54406;SDS011;40313;50.308;30.374;2022-10-31T13:13:34;1.48;;;1.10;;
54406;SDS011;40313;50.308;30.374;2022-10-31T13:16:05;0.80;;;0.50;;
54406;SDS011;40313;50.308;30.374;2022-10-31T13:18:39;0.77;;;0.43;;
54406;SDS011;40313;50.308;30.374;2022-10-31T13:21:10;3.03;;;0.50;;
54406;SDS011;40313;50.308;30.374;2022-10-31T13:23:41;1.40;;;0.77;;
54406;SDS011;40313;50.308;30.374;2022-10-31T13:26:12;0.90;;;0.63;;
54406;SDS011;40313;50.308;30.374;2022-10-31T13:28:44;3.67;;;0.55;;
54406;SDS011;40313;50.308;30.374;2022-10-31T13:31:13;1.23;;;0.70;;
54406;SDS011;40313;50.308;30.374;2022-10-31T13:33:40;5.30;;;0.80;;
54406;SDS011;40313;50.308;30.374;2022-10-31T13:36:14;4.80;;;0.68;;
54406;SDS011;40313;50.308;30.374;2022-10-31T13:38:48;0.98;;;0.73;;
54406;SDS011;40313;50.308;30.374;2022-10-31T13:41:27;12.73;;;0.85;;
54406;SDS011;40313;50.308;30.374;2022-10-31T13:44:12;1.02;;;0.80;;
54406;SDS011;40313;50.308;30.374;2022-10-31T13:46:42;1.25;;;0.60;;
54406;SDS011;40313;50.308;30.374;2022-10-31T13:54:38;3.33;;;1.23;;
54406;SDS011;40313;50.308;30.374;2022-10-31T13:57:06;2.60;;;1.33;;
54406;SDS011;40313;50.308;30.374;2022-10-31T13:59:46;1.45;;;0.77;;
54406;SDS011;40313;50.308;30.374;2022-10-31T14:02:15;6.20;;;1.75;;
54406;SDS011;40313;50.308;30.374;2022-10-31T14:04:44;1.38;;;0.75;;
54406;SDS011;40313;50.308;30.374;2022-10-31T14:07:15;1.58;;;1.13;;
54406;SDS011;40313;50.308;30.374;2022-10-31T18:55:41;33.25;;;17.08;;
54406;SDS011;40313;50.308;30.374;2022-10-31T18:58:08;43.17;;;19.40;;
54406;SDS011;40313;50.308;30.374;2022-10-31T19:00:35;45.30;;;18.08;;
54406;SDS011;40313;50.308;30.374;2022-10-31T19:03:03;56.55;;;21.75;;
54406;SDS011;40313;50.308;30.374;2022-10-31T19:05:30;51.17;;;21.38;;
54406;SDS011;40313;50.308;30.374;2022-10-31T19:07:57;37.13;;;19.00;;
54406;SDS011;40313;50.308;30.374;2022-10-31T19:10:23;34.50;;;17.20;;
54406;SDS011;40313;50.308;30.374;2022-10-31T19:12:51;34.15;;;15.73;;
54406;SDS011;40313;50.308;30.374;2022-10-31T19:15:18;22.25;;;12.93;;
54406;SDS011;40313;50.308;30.374;2022-10-31T19:17:44;22.48;;;12.85;;
54406;SDS011;40313;50.308;30.374;2022-10-31T19:20:11;25.98;;;11.68;;
54406;SDS011;40313;50.308;30.374;2022-10-31T19:22:38;23.60;;;11.57;;
54406;SDS011;40313;50.308;30.374;2022-10-31T19:25:05;17.52;;;10.20;;
54406;SDS011;40313;50.308;30.374;2022-10-31T19:27:32;12.25;;;9.65;;
54406;SDS011;40313;50.308;30.374;2022-10-31T19:30:00;11.20;;;9.05;;
54406;SDS011;40313;50.308;30.374;2022-10-31T19:32:27;11.40;;;8.45;;
54406;SDS011;40313;50.308;30.374;2022-10-31T19:34:53;16.88;;;9.70;;
54406;SDS011;40313;50.308;30.374;2022-10-31T19:37:20;17.40;;;8.90;;
54406;SDS011;40313;50.308;30.374;2022-10-31T19:39:46;14.43;;;8.70;;
54406;SDS011;40313;50.308;30.374;2022-10-31T19:42:13;17.38;;;9.00;;
54406;SDS011;40313;50.308;30.374;2022-10-31T19:44:40;12.82;;;9.48;;
54406;SDS011;40313;50.308;30.374;2022-10-31T19:47:08;18.58;;;10.85;;